Home > Products > Valid Products > TAF

000
FTUS46 KMFR 272320
TAFLMT
TAF
KLMT 272320Z 2800/2824 29010KT P6SM SKC
     FM280500 VRB03KT 5SM FU HZ BKN200
     FM282000 21012G20KT P6SM BKN200=



000
FTUS46 KMFR 272320
TAFMFR
TAF
KMFR 272320Z 2800/2824 32010KT 3SM FU SKC
     FM280400 VRB03KT P6SM BKN250
     FM282200 32010KT P6SM SCT050 BKN250=



000
FTUS46 KMFR 272320
TAFOTH
TAF
KOTH 272320Z 2800/2824 27008KT P6SM SCT050
     FM280200 VRB03KT P6SM OVC040
     FM280900 VRB03KT 5SM -RA BR OVC035
     FM281700 33007KT P6SM OVC040
     FM281900 35012G20KT P6SM OVC050=



000
FTUS46 KMFR 272320
TAFRBG
TAF
KRBG 272320Z 2800/2824 01011KT P6SM SKC
     FM280300 VRB03KT P6SM BKN200
     FM281300 VRB03KT P6SM BKN050
     FM282200 36008KT P6SM OVC050=



000
FTUS46 KMFR 272320
TAFLMT
TAF
KLMT 272320Z 2800/2824 29010KT P6SM SKC
     FM280500 VRB03KT 5SM FU HZ BKN200
     FM282000 21012G20KT P6SM BKN200=



000
FTUS46 KMFR 272320
TAFRBG
TAF
KRBG 272320Z 2800/2824 01011KT P6SM SKC
     FM280300 VRB03KT P6SM BKN200
     FM281300 VRB03KT P6SM BKN050
     FM282200 36008KT P6SM OVC050=



000
FTUS46 KMFR 272320
TAFOTH
TAF
KOTH 272320Z 2800/2824 27008KT P6SM SCT050
     FM280200 VRB03KT P6SM OVC040
     FM280900 VRB03KT 5SM -RA BR OVC035
     FM281700 33007KT P6SM OVC040
     FM281900 35012G20KT P6SM OVC050=



000
FTUS46 KMFR 272320
TAFMFR
TAF
KMFR 272320Z 2800/2824 32010KT 3SM FU SKC
     FM280400 VRB03KT P6SM BKN250
     FM282200 32010KT P6SM SCT050 BKN250=



000
FTUS46 KMFR 271738
TAFOTH
TAF
KOTH 271738Z 2718/2818 VRB04KT P6SM FEW200
     FM272300 24006KT P6SM BKN250
     FM280300 19006KT P6SM BKN025 OVC200=



000
FTUS46 KMFR 271738
TAFMFR
TAF
KMFR 271738Z 2718/2818 VRB03KT 6SM FU SCT250
     FM272200 30011KT 3SM FU BKN150
     FM280300 VRB03KT P6SM BKN150=



000
FTUS46 KMFR 271738
TAFLMT
TAF
KLMT 271738Z 2718/2818 21005KT 6SM FU FEW200
     FM272300 23010KT P6SM SCT200
     FM280400 30008KT P6SM BKN120=



000
FTUS46 KMFR 271738
TAFRBG
TAF
KRBG 271738Z 2718/2818 VRB03KT P6SM FEW200
     FM272300 34007KT P6SM SKC=



000
FTUS46 KMFR 271738
TAFMFR
TAF
KMFR 271738Z 2718/2818 VRB03KT 6SM FU SCT250
     FM272200 30011KT 3SM FU BKN150
     FM280300 VRB03KT P6SM BKN150=



000
FTUS46 KMFR 271738
TAFLMT
TAF
KLMT 271738Z 2718/2818 21005KT 6SM FU FEW200
     FM272300 23010KT P6SM SCT200
     FM280400 30008KT P6SM BKN120=



000
FTUS46 KMFR 271738
TAFRBG
TAF
KRBG 271738Z 2718/2818 VRB03KT P6SM FEW200
     FM272300 34007KT P6SM SKC=



000
FTUS46 KMFR 271738
TAFOTH
TAF
KOTH 271738Z 2718/2818 VRB04KT P6SM FEW200
     FM272300 24006KT P6SM BKN250
     FM280300 19006KT P6SM BKN025 OVC200=



000
FTUS46 KMFR 271138
TAFMFR
TAF
KMFR 271138Z 2712/2812 VRB03KT 6SM FU SCT250
     FM272200 30006KT 3SM FU BKN150
     FM280300 VRB03KT P6SM BKN150=



000
FTUS46 KMFR 271138
TAFLMT
TAF
KLMT 271138Z 2712/2812 21005KT 5SM FU FEW100 SCT200
     FM272300 23010KT P6SM SCT200
     FM280400 30008KT P6SM BKN120=



000
FTUS46 KMFR 271138
TAFLMT
TAF
KLMT 271138Z 2712/2812 21005KT 5SM FU FEW100 SCT200
     FM272300 23010KT P6SM SCT200
     FM280400 30008KT P6SM BKN120=



000
FTUS46 KMFR 271138
TAFRBG
TAF
KRBG 271138Z 2712/2812 VRB03KT P6SM SCT150=



000
FTUS46 KMFR 271138
TAFOTH
TAF
KOTH 271138Z 2712/2812 13004KT P6SM SCT012 BKN200
      TEMPO 2712/2715 BKN012
     FM271600 22004KT P6SM SCT250
     FM272300 24006KT P6SM BKN250
     FM280300 19006KT P6SM BKN025 OVC200=



000
FTUS46 KMFR 271138
TAFMFR
TAF
KMFR 271138Z 2712/2812 VRB03KT 6SM FU SCT250
     FM272200 30006KT 3SM FU BKN150
     FM280300 VRB03KT P6SM BKN150=



000
FTUS46 KMFR 271138
TAFOTH
TAF
KOTH 271138Z 2712/2812 13004KT P6SM SCT012 BKN200
      TEMPO 2712/2715 BKN012
     FM271600 22004KT P6SM SCT250
     FM272300 24006KT P6SM BKN250
     FM280300 19006KT P6SM BKN025 OVC200=



000
FTUS46 KMFR 271138
TAFRBG
TAF
KRBG 271138Z 2712/2812 VRB03KT P6SM SCT150=



000
FTUS46 KMFR 270543 CCA
TAFOTH
TAF COR
KOTH 270543Z 2706/2806 19004KT P6SM BKN200
     FM271000 15004KT P6SM BKN010
     FM271600 22004KT P6SM SCT250
     FM272300 34006KT P6SM BKN250=



000
FTUS46 KMFR 270543 CCA
TAFOTH
TAF COR
KOTH 270543Z 2706/2806 19004KT P6SM BKN200
     FM271000 15004KT P6SM BKN010
     FM271600 22004KT P6SM SCT250
     FM272300 34006KT P6SM BKN250=



000
FTUS46 KMFR 270542
TAFMFR
TAF
KMFR 270542Z 2706/2806 VRB04KT 6SM FU SCT250=



000
FTUS46 KMFR 270542
TAFLMT
TAF
KLMT 270542Z 2706/2806 21005KT P6SM FEW100 SCT200
     FM272300 23010KT P6SM SCT200=



000
FTUS46 KMFR 270542
TAFRBG
TAF
KRBG 270542Z 2706/2806 VRB03KT P6SM SCT250=



000
FTUS46 KMFR 270542
TAFOTH
TAF
KOTH 270542Z 2706/2806 19004KT P6SM BKN200
     FM271000 15004KT P6SM BKN010
     FM272300 34006KT P6SM BKN250=



000
FTUS46 KMFR 270542
TAFLMT
TAF
KLMT 270542Z 2706/2806 21005KT P6SM FEW100 SCT200
     FM272300 23010KT P6SM SCT200=



000
FTUS46 KMFR 270542
TAFMFR
TAF
KMFR 270542Z 2706/2806 VRB04KT 6SM FU SCT250=



000
FTUS46 KMFR 270542
TAFOTH
TAF
KOTH 270542Z 2706/2806 19004KT P6SM BKN200
     FM271000 15004KT P6SM BKN010
     FM272300 34006KT P6SM BKN250=



000
FTUS46 KMFR 270542
TAFRBG
TAF
KRBG 270542Z 2706/2806 VRB03KT P6SM SCT250=



000
FTUS46 KMFR 262339
TAFLMT
TAF
KLMT 262339Z 2700/2724 20009G16KT P6SM SCT100
     FM270400 21005KT P6SM FEW100=



000
FTUS46 KMFR 262339
TAFOTH
TAF
KOTH 262339Z 2700/2724 25008KT P6SM SCT200
     FM270400 19004KT P6SM BKN200
     FM271000 15004KT P6SM BKN010
      AMD NOT SKED=



000
FTUS46 KMFR 262339
TAFMFR
TAF
KMFR 262339Z 2700/2724 32012G18KT 3SM FU SCT200
     FM270400 VRB04KT 6SM FU FEW200=



000
FTUS46 KMFR 262339
TAFRBG
TAF
KRBG 262339Z 2700/2724 34008KT P6SM SKC
     FM270400 VRB03KT P6SM SKC=



000
FTUS46 KMFR 262339
TAFMFR
TAF
KMFR 262339Z 2700/2724 32012G18KT 3SM FU SCT200
     FM270400 VRB04KT 6SM FU FEW200=



000
FTUS46 KMFR 262339
TAFLMT
TAF
KLMT 262339Z 2700/2724 20009G16KT P6SM SCT100
     FM270400 21005KT P6SM FEW100=



000
FTUS46 KMFR 262339
TAFRBG
TAF
KRBG 262339Z 2700/2724 34008KT P6SM SKC
     FM270400 VRB03KT P6SM SKC=



000
FTUS46 KMFR 262339
TAFOTH
TAF
KOTH 262339Z 2700/2724 25008KT P6SM SCT200
     FM270400 19004KT P6SM BKN200
     FM271000 15004KT P6SM BKN010
      AMD NOT SKED=



000
FTUS46 KMFR 262219 AAA
TAFOTH
TAF AMD
KOTH 262219Z 2622/2718 30009KT P6SM SKC
     FM270400 19004KT P6SM BKN200
     FM271000 15004KT P6SM BKN010=



000
FTUS46 KMFR 261739
TAFOTH
TAF
KOTH 261739Z 2618/2718 15005KT P6SM OVC011
     FM262100 30009KT P6SM SKC
     FM270400 19004KT P6SM BKN200
     FM271000 15004KT P6SM BKN010=



000
FTUS46 KMFR 261739
TAFLMT
TAF
KLMT 261739Z 2618/2718 14004KT P6SM SKC
     FM262100 21009G16KT P6SM FEW080
     FM270400 21005KT P6SM FEW080=



000
FTUS46 KMFR 261739
TAFMFR
TAF
KMFR 261739Z 2618/2718 00000KT 6SM HZ FU SKC
     FM262300 30012G18KT 4SM FU SKC
     FM270400 VRB04KT 6SM FU FEW100=



000
FTUS46 KMFR 261739
TAFOTH
TAF
KOTH 261739Z 2618/2718 15005KT P6SM OVC011
     FM262100 30009KT P6SM SKC
     FM270400 19004KT P6SM BKN200
     FM271000 15004KT P6SM BKN010=



000
FTUS46 KMFR 261739
TAFMFR
TAF
KMFR 261739Z 2618/2718 00000KT 6SM HZ FU SKC
     FM262300 30012G18KT 4SM FU SKC
     FM270400 VRB04KT 6SM FU FEW100=



000
FTUS46 KMFR 261739
TAFLMT
TAF
KLMT 261739Z 2618/2718 14004KT P6SM SKC
     FM262100 21009G16KT P6SM FEW080
     FM270400 21005KT P6SM FEW080=



000
FTUS46 KMFR 261739
TAFRBG
TAF
KRBG 261739Z 2618/2718 19003KT P6SM SKC
     FM262300 34008KT P6SM SCT200
     FM270400 VRB03KT P6SM SKC=



000
FTUS46 KMFR 261739
TAFRBG
TAF
KRBG 261739Z 2618/2718 19003KT P6SM SKC
     FM262300 34008KT P6SM SCT200
     FM270400 VRB03KT P6SM SKC=



000
FTUS46 KMFR 261126
TAFOTH
TAF
KOTH 261126Z 2612/2712 17003KT P6SM SCT002 OVC013
      TEMPO 2612/2615 4SM BR BKN002
     FM261700 VRB04KT P6SM SCT015
     FM261800 30009KT P6SM SCT200
     FM270200 34004KT P6SM BKN200
     FM271000 02004KT P6SM SCT012 SCT050 BKN150=



000
FTUS46 KMFR 261126
TAFLMT
TAF
KLMT 261126Z 2612/2712 VRB03KT 6SM FU FEW100
     FM262000 19009G16KT P6SM FEW080
     FM270400 21005KT P6SM FEW080=



000
FTUS46 KMFR 261126
TAFMFR
TAF
KMFR 261126Z 2612/2712 VRB03KT P6SM SKC
     FM261800 30005KT 6SM FU SKC
     FM262300 30012G18KT 4SM FU SKC
     FM270400 32004KT 6SM FU FEW100=



000
FTUS46 KMFR 261126
TAFRBG
TAF
KRBG 261126Z 2612/2712 00000KT P6SM SKC
     FM262300 34008KT P6SM SCT200
     FM270400 VRB03KT P6SM SKC=



000
FTUS46 KMFR 261126
TAFRBG
TAF
KRBG 261126Z 2612/2712 00000KT P6SM SKC
     FM262300 34008KT P6SM SCT200
     FM270400 VRB03KT P6SM SKC=



000
FTUS46 KMFR 261126
TAFLMT
TAF
KLMT 261126Z 2612/2712 VRB03KT 6SM FU FEW100
     FM262000 19009G16KT P6SM FEW080
     FM270400 21005KT P6SM FEW080=



000
FTUS46 KMFR 261126
TAFMFR
TAF
KMFR 261126Z 2612/2712 VRB03KT P6SM SKC
     FM261800 30005KT 6SM FU SKC
     FM262300 30012G18KT 4SM FU SKC
     FM270400 32004KT 6SM FU FEW100=



000
FTUS46 KMFR 261126
TAFOTH
TAF
KOTH 261126Z 2612/2712 17003KT P6SM SCT002 OVC013
      TEMPO 2612/2615 4SM BR BKN002
     FM261700 VRB04KT P6SM SCT015
     FM261800 30009KT P6SM SCT200
     FM270200 34004KT P6SM BKN200
     FM271000 02004KT P6SM SCT012 SCT050 BKN150=



000
FTUS46 KMFR 260534
TAFMFR
TAF
KMFR 260534Z 2606/2706 VRB03KT P6SM SKC
     FM261800 30005KT 6SM FU SKC
     FM262300 30012G18KT 4SM FU SKC
     FM270400 32004KT 6SM FU FEW100=



000
FTUS46 KMFR 260534
TAFOTH
TAF
KOTH 260534Z 2606/2706 23005KT P6SM SCT100
     FM260900 17003KT 5SM BR BKN008
     FM261100 18003KT 1SM BR OVC004
     FM261700 VRB04KT 4SM BR BKN008
     FM261800 30009KT P6SM SCT200=



000
FTUS46 KMFR 260534
TAFLMT
TAF
KLMT 260534Z 2606/2706 VRB03KT 6SM FU FEW100
     FM262000 19009G16KT P6SM FEW080
     FM270400 21005KT P6SM FEW080=



000
FTUS46 KMFR 260534
TAFRBG
TAF
KRBG 260534Z 2606/2706 00000KT P6SM SKC
     FM262300 34008KT P6SM SCT200=



000
FTUS46 KMFR 260123 AAA
TAFLMT
TAF AMD
KLMT 260123Z 2601/2624 28005KT P6SM SCT100 SCT250
     FM262000 19009G16KT P6SM FEW250=



000
FTUS46 KMFR 252336
TAFOTH
TAF
KOTH 252336Z 2600/2624 35015G22KT P6SM SKC
     FM260300 35011KT P6SM SCT100
     FM260900 VRB03KT 5SM BR BKN008
     FM261100 VRB03KT 1SM BR BKN004
     FM261700 VRB04KT 4SM BR BKN008
     FM261800 30009KT P6SM SCT010 BKN030=



000
FTUS46 KMFR 252336
TAFMFR
TAF
KMFR 252336Z 2600/2624 30012KT 3SM FU SKC
     FM260400 30008KT 5SM FU SKC
     FM261800 30005KT 6SM FU SKC
     FM262300 30012G18KT 5SM FU SKC=



000
FTUS46 KMFR 252336
TAFLMT
TAF
KLMT 252336Z 2600/2624 24012G17KT 6SM FU SCT100 SCT250
     FM260400 VRB03KT 5SM FU FEW250
     FM262000 19009G16KT P6SM FEW250=



000
FTUS46 KMFR 252336
TAFOTH
TAF
KOTH 252336Z 2600/2624 35015G22KT P6SM SKC
     FM260300 35011KT P6SM SCT100
     FM260900 VRB03KT 5SM BR BKN008
     FM261100 VRB03KT 1SM BR BKN004
     FM261700 VRB04KT 4SM BR BKN008
     FM261800 30009KT P6SM SCT010 BKN030=



000
FTUS46 KMFR 252336
TAFLMT
TAF
KLMT 252336Z 2600/2624 24012G17KT 6SM FU SCT100 SCT250
     FM260400 VRB03KT 5SM FU FEW250
     FM262000 19009G16KT P6SM FEW250=



000
FTUS46 KMFR 252336
TAFMFR
TAF
KMFR 252336Z 2600/2624 30012KT 3SM FU SKC
     FM260400 30008KT 5SM FU SKC
     FM261800 30005KT 6SM FU SKC
     FM262300 30012G18KT 5SM FU SKC=



000
FTUS46 KMFR 252336
TAFRBG
TAF
KRBG 252336Z 2600/2624 35008KT P6SM SKC
     FM260500 00000KT P6SM SKC=



000
FTUS46 KMFR 251731
TAFMFR
TAF
KMFR 251731Z 2518/2618 VRB03KT 5SM FU SKC
     FM252200 30010G14KT 4SM FU SKC
     FM260400 00000KT 5SM FU SKC=



000
FTUS46 KMFR 251731
TAFRBG
TAF
KRBG 251731Z 2518/2618 00000KT P6SM SKC
     FM252000 36005KT P6SM SKC
     FM260000 35009G15KT P6SM SKC
     FM260300 36003KT P6SM SKC=



000
FTUS46 KMFR 251731
TAFOTH
TAF
KOTH 251731Z 2518/2618 35004KT P6SM SKC
     FM252000 35014G19KT P6SM SKC
     FM260300 35007KT P6SM SCT100
     FM260800 34006KT P6SM SCT008
     FM261100 18003KT 4SM BR BKN008=



000
FTUS46 KMFR 251731
TAFLMT
TAF
KLMT 251731Z 2518/2618 VRB03KT 5SM FU SKC
     FM252200 24012KT 6SM FU SCT100 SCT250
     FM260400 VRB03KT 5SM FU FEW250=



000
FTUS46 KMFR 251731
TAFLMT
TAF
KLMT 251731Z 2518/2618 VRB03KT 5SM FU SKC
     FM252200 24012KT 6SM FU SCT100 SCT250
     FM260400 VRB03KT 5SM FU FEW250=



000
FTUS46 KMFR 251731
TAFRBG
TAF
KRBG 251731Z 2518/2618 00000KT P6SM SKC
     FM252000 36005KT P6SM SKC
     FM260000 35009G15KT P6SM SKC
     FM260300 36003KT P6SM SKC=



000
FTUS46 KMFR 251731
TAFOTH
TAF
KOTH 251731Z 2518/2618 35004KT P6SM SKC
     FM252000 35014G19KT P6SM SKC
     FM260300 35007KT P6SM SCT100
     FM260800 34006KT P6SM SCT008
     FM261100 18003KT 4SM BR BKN008=



000
FTUS46 KMFR 251731
TAFMFR
TAF
KMFR 251731Z 2518/2618 VRB03KT 5SM FU SKC
     FM252200 30010G14KT 4SM FU SKC
     FM260400 00000KT 5SM FU SKC=



000
FTUS46 KMFR 251135
TAFOTH
TAF
KOTH 251135Z 2512/2612 VRB03KT 6SM BR SCT012
      TEMPO 2512/2515 4SM BR BKN012
     FM251800 35016G24KT P6SM SKC
     FM260300 35006KT P6SM SKC
     FM260600 34006KT P6SM SCT008
     FM260900 35006KT 4SM BR BKN008=



000
FTUS46 KMFR 251135
TAFMFR
TAF
KMFR 251135Z 2512/2612 VRB03KT 5SM FU SKC
     FM252100 30010KT 4SM FU SKC
     FM260300 VRB03KT 5SM FU SKC=



000
FTUS46 KMFR 251135
TAFLMT
TAF
KLMT 251135Z 2512/2612 VRB03KT 5SM FU SKC
     FM252100 20012KT 6SM FU SCT100
     FM260400 VRB03KT 5SM FU SKC=



000
FTUS46 KMFR 251135
TAFRBG
TAF
KRBG 251135Z 2512/2612 VRB03KT P6SM SKC
     FM252100 01010KT P6SM SKC
     FM260300 36003KT P6SM SKC=



000
FTUS46 KMFR 251135
TAFLMT
TAF
KLMT 251135Z 2512/2612 VRB03KT 5SM FU SKC
     FM252100 20012KT 6SM FU SCT100
     FM260400 VRB03KT 5SM FU SKC=



000
FTUS46 KMFR 251135
TAFRBG
TAF
KRBG 251135Z 2512/2612 VRB03KT P6SM SKC
     FM252100 01010KT P6SM SKC
     FM260300 36003KT P6SM SKC=



000
FTUS46 KMFR 251135
TAFOTH
TAF
KOTH 251135Z 2512/2612 VRB03KT 6SM BR SCT012
      TEMPO 2512/2515 4SM BR BKN012
     FM251800 35016G24KT P6SM SKC
     FM260300 35006KT P6SM SKC
     FM260600 34006KT P6SM SCT008
     FM260900 35006KT 4SM BR BKN008=



000
FTUS46 KMFR 251135
TAFMFR
TAF
KMFR 251135Z 2512/2612 VRB03KT 5SM FU SKC
     FM252100 30010KT 4SM FU SKC
     FM260300 VRB03KT 5SM FU SKC=



000
FTUS46 KMFR 250541
TAFOTH
TAF
KOTH 250541Z 2506/2606 VRB03KT P6SM SKC
     FM250800 VRB03KT 6SM BR SCT012
     FM251100 VRB03KT 3SM BR BKN012
     FM251800 35016G24KT P6SM SKC
     FM260300 35006KT P6SM SKC=



000
FTUS46 KMFR 250541
TAFMFR
TAF
KMFR 250541Z 2506/2606 VRB03KT 5SM FU SKC
     FM252100 30010KT 4SM FU SKC
     FM260300 VRB03KT 5SM FU SKC=



000
FTUS46 KMFR 250541
TAFRBG
TAF
KRBG 250541Z 2506/2606 VRB03KT P6SM SKC
     FM252100 01010KT P6SM SKC
     FM260300 36003KT P6SM SKC=



000
FTUS46 KMFR 250541
TAFLMT
TAF
KLMT 250541Z 2506/2606 VRB03KT 5SM FU SKC
     FM252100 20012KT 6SM FU SCT100
     FM260400 VRB03KT 5SM FU SKC=



    US Dept of Commerce
    National Oceanic and Atmospheric Administration
    National Weather Service
    1325 East West Highway
    Silver Spring, MD 20910
    Page Author: NWS Internet Services Team
Disclaimer
Information Quality
Credits
Glossary
Privacy Policy
Freedom of Information Act (FOIA)
About Us
Career Opportunities